Time;durP1;ratioP1;P1;durP2;ratioP2;P2;SDS_P1;SDS_P2;PMS_P1;PMS_P2;Temp;Humidity;BMP_temperature;BMP_pressure;BME280_temperature;BME280_humidity;BME280_pressure;Samples;Min_cycle;Max_cycle;Signal;HPM_P1;HPM_P2
2023/06/23 00:01:54;;;;;;;1.90;1.75;;;22.00;99.90;;;23.06;65.70;97898.44;5136261;28;20606;-65
2023/06/23 00:04:27;;;;;;;2.10;1.90;;;22.00;99.90;;;23.13;66.33;97904.59;5136540;28;20237;-66
2023/06/23 00:07:01;;;;;;;2.95;2.28;;;22.10;99.90;;;23.31;66.52;97909.06;5134858;28;20592;-65
2023/06/23 00:09:37;;;;;;;2.75;1.92;;;22.20;99.90;;;23.31;66.57;97896.91;5137805;28;20231;-66
2023/06/23 00:12:11;;;;;;;2.45;1.95;;;22.20;99.90;;;23.19;67.16;97904.63;5135141;28;20322;-66
2023/06/23 00:14:45;;;;;;;2.50;2.30;;;22.20;99.90;;;23.02;68.10;97903.63;5134566;28;20286;-65
2023/06/23 00:17:18;;;;;;;2.83;2.33;;;22.00;99.90;;;23.08;67.95;97904.53;5139359;28;20224;-66
2023/06/23 00:19:51;;;;;;;2.22;2.05;;;22.00;99.90;;;23.06;68.37;97906.25;5137313;28;20224;-66
2023/06/23 00:22:27;;;;;;;2.83;2.50;;;21.90;99.90;;;23.06;68.16;97910.59;5136545;28;20742;-65
2023/06/23 00:25:00;;;;;;;3.78;2.58;;;22.00;99.90;;;22.90;68.62;97909.59;5132806;28;20227;-66
2023/06/23 00:27:35;;;;;;;2.38;2.17;;;21.90;99.90;;;22.90;68.81;97920.00;5136731;28;20276;-65
2023/06/23 00:30:11;;;;;;;2.10;1.90;;;21.90;99.90;;;22.88;68.91;97922.59;5135127;28;20622;-65
2023/06/23 00:32:45;;;;;;;3.85;2.50;;;21.90;99.90;;;22.91;69.10;97927.81;5138154;28;20267;-66
2023/06/23 00:35:19;;;;;;;3.38;2.10;;;21.90;99.90;;;22.95;68.70;97926.19;5136904;28;20345;-66
2023/06/23 00:37:53;;;;;;;2.17;1.98;;;22.00;99.90;;;22.87;69.27;97933.03;5139077;28;20270;-65
2023/06/23 00:40:26;;;;;;;2.88;2.30;;;21.90;99.90;;;22.72;69.94;97928.53;5134166;28;20227;-65
2023/06/23 00:43:00;;;;;;;2.22;2.03;;;21.80;99.90;;;22.67;70.78;97925.00;5134164;28;20236;-65
2023/06/23 00:45:33;;;;;;;1.90;1.80;;;21.70;99.90;;;22.59;71.85;97921.44;5136601;28;20609;-66
2023/06/23 00:48:08;;;;;;;2.88;2.38;;;21.70;99.90;;;22.54;71.92;97923.13;5138528;28;20270;-65
2023/06/23 00:50:42;;;;;;;2.88;2.50;;;21.60;99.90;;;22.53;71.99;97924.00;5136196;28;20263;-66
2023/06/23 00:53:16;;;;;;;2.35;2.15;;;21.60;99.90;;;22.45;72.51;97929.97;5132660;28;20219;-66
2023/06/23 00:55:50;;;;;;;2.20;2.10;;;21.60;99.90;;;22.46;72.78;97936.06;5137993;28;20227;-65
2023/06/23 00:58:25;;;;;;;2.13;2.03;;;21.80;99.90;;;22.36;73.82;97929.88;5131205;28;20239;-66
2023/06/23 01:00:59;;;;;;;2.88;2.20;;;21.50;99.90;;;22.23;74.68;97925.38;5138579;28;20682;-66
2023/06/23 01:03:32;;;;;;;2.20;2.00;;;21.40;99.90;;;22.13;75.08;97926.09;5136187;28;20228;-66
2023/06/23 01:06:16;;;;;;;3.20;2.05;;;21.20;99.90;;;22.21;75.02;97924.50;5133702;28;20323;-66
2023/06/23 01:08:57;;;;;;;2.50;2.30;;;21.30;99.90;;;22.26;75.93;97920.19;5136362;28;20266;-65
2023/06/23 01:11:39;;;;;;;2.53;2.20;;;21.30;99.90;;;22.17;78.39;97920.06;5137938;28;20641;-65
2023/06/23 01:14:23;;;;;;;2.63;2.25;;;21.20;99.90;;;21.99;81.14;97924.19;5140299;28;20227;-65
2023/06/23 01:17:07;;;;;;;2.60;2.40;;;21.20;99.90;;;21.78;85.04;97930.00;5137944;28;20267;-65
2023/06/23 01:19:54;;;;;;;2.30;2.20;;;20.90;99.90;;;21.56;86.44;97928.78;5138842;28;20738;-65
2023/06/23 01:22:34;;;;;;;2.85;2.30;;;20.70;99.90;;;21.49;86.45;97937.38;5134183;28;20259;-65
2023/06/23 01:25:22;;;;;;;2.30;2.10;;;20.60;99.90;;;21.48;86.61;97946.00;5134826;28;20606;-65
2023/06/23 01:28:42;;;;;;;2.17;2.00;;;20.70;99.90;;;21.25;89.62;97931.75;5136870;28;20263;-65
2023/06/23 01:31:21;;;;;;;2.50;2.30;;;20.50;99.90;;;21.29;88.98;97934.44;5137645;28;20610;-65
2023/06/23 01:34:03;;;;;;;2.42;2.22;;;20.40;99.90;;;21.30;88.03;97940.50;5130571;28;20242;-65
2023/06/23 01:36:46;;;;;;;2.45;2.25;;;20.30;99.90;;;21.28;87.68;97940.47;5135307;28;20233;-66
2023/06/23 01:39:21;;;;;;;2.45;2.25;;;20.30;99.90;;;21.24;88.48;97940.41;5131339;28;20612;-66
2023/06/23 01:42:01;;;;;;;2.40;2.20;;;20.30;99.90;;;21.17;88.75;97941.16;5139728;28;20227;-66
2023/06/23 01:44:38;;;;;;;2.60;2.40;;;20.30;99.90;;;21.09;91.70;97944.50;5136501;28;20716;-65
2023/06/23 01:47:18;;;;;;;2.65;2.45;;;20.20;99.90;;;21.00;93.21;97946.06;5138386;28;20227;-66
2023/06/23 01:49:53;;;;;;;2.53;2.25;;;20.10;99.90;;;20.81;96.07;97945.75;5138605;28;20702;-66
2023/06/23 01:52:27;;;;;;;4.78;2.90;;;20.00;99.90;;;20.63;98.83;97951.50;5131790;28;20255;-65
2023/06/23 01:55:02;;;;;;;3.10;2.88;;;19.90;99.90;;;20.54;100.00;97950.41;5133703;28;20281;-66
2023/06/23 01:57:38;;;;;;;3.08;2.80;;;19.80;99.90;;;20.46;100.00;97948.53;5139290;28;20227;-65
2023/06/23 02:00:18;;;;;;;3.28;3.08;;;19.70;99.90;;;20.29;100.00;97947.31;5135482;28;20642;-65
2023/06/23 02:02:53;;;;;;;3.13;2.92;;;19.60;99.90;;;20.08;100.00;97958.13;5134401;28;20231;-65
2023/06/23 02:05:28;;;;;;;3.05;2.80;;;19.50;99.90;;;19.92;100.00;97958.66;5135693;28;20310;-66
2023/06/23 02:08:03;;;;;;;4.43;3.20;;;19.40;99.90;;;19.84;100.00;97965.41;5135555;28;20227;-65
2023/06/23 02:10:37;;;;;;;3.60;3.30;;;19.30;99.90;;;19.88;100.00;97964.59;5137554;28;20219;-66
2023/06/23 02:13:13;;;;;;;4.00;3.70;;;19.20;99.90;;;19.91;100.00;97969.88;5138779;28;20736;-66
2023/06/23 02:15:50;;;;;;;3.72;3.42;;;19.20;99.90;;;19.82;100.00;97967.06;5135445;28;20394;-65
2023/06/23 02:18:25;;;;;;;4.22;3.88;;;19.10;99.90;;;19.61;100.00;97977.81;5134486;28;20263;-65
2023/06/23 02:20:59;;;;;;;4.97;4.45;;;18.90;99.90;;;19.50;100.00;97980.16;5138086;28;20247;-65
2023/06/23 02:23:33;;;;;;;5.03;4.63;;;18.80;99.90;;;19.32;100.00;97989.22;5136591;28;20620;-65
2023/06/23 02:26:10;;;;;;;4.82;4.43;;;18.70;99.90;;;19.29;100.00;97985.69;5138361;28;20651;-66
2023/06/23 02:28:49;;;;;;;5.38;4.88;;;18.70;99.90;;;19.25;100.00;98000.28;5142515;28;20278;-65
2023/06/23 02:31:25;;;;;;;5.50;5.00;;;18.60;99.90;;;19.15;100.00;98005.22;5138818;28;20846;-65
2023/06/23 02:33:58;;;;;;;5.53;5.13;;;18.50;99.90;;;19.03;100.00;98023.88;5139000;28;21454;-65
2023/06/23 02:36:42;;;;;;;5.80;5.30;;;18.40;99.90;;;19.07;100.00;98020.53;5137457;28;20811;-65
2023/06/23 02:39:19;;;;;;;6.30;5.70;;;18.40;99.90;;;18.92;100.00;98021.03;5135382;28;20220;-65
2023/06/23 02:41:58;;;;;;;6.32;5.82;;;18.40;99.90;;;18.83;100.00;98019.06;5140777;28;20235;-65
2023/06/23 02:44:36;;;;;;;7.90;6.30;;;18.30;99.90;;;18.72;100.00;98024.75;5140652;28;20363;-65
2023/06/23 02:47:16;;;;;;;6.78;6.20;;;18.30;99.90;;;18.71;100.00;98021.25;5138276;28;20636;-65
2023/06/23 02:49:52;;;;;;;7.30;6.70;;;18.20;99.90;;;18.65;100.00;98031.47;5138292;28;20227;-65
2023/06/23 02:52:29;;;;;;;7.70;7.00;;;18.10;99.90;;;18.60;100.00;98033.94;5130126;28;20243;-65
2023/06/23 02:55:07;;;;;;;7.57;6.97;;;18.00;99.90;;;18.56;100.00;98026.03;5136356;28;22455;-65
2023/06/23 02:57:42;;;;;;;7.78;7.07;;;18.00;99.90;;;18.43;100.00;98035.16;5140567;28;20234;-65
2023/06/23 03:00:22;;;;;;;8.30;7.60;;;17.90;99.90;;;18.34;100.00;98034.88;5140142;28;20223;-64
2023/06/23 03:03:01;;;;;;;7.68;6.97;;;17.90;99.90;;;18.46;100.00;98051.66;5139895;28;20235;-65
2023/06/23 03:05:34;;;;;;;8.85;7.97;;;17.90;99.90;;;18.46;100.00;98056.84;5139815;28;20228;-65
2023/06/23 03:08:08;;;;;;;8.30;7.50;;;17.90;99.90;;;18.44;100.00;98058.50;5136118;28;20303;-65
2023/06/23 03:10:41;;;;;;;7.85;7.15;;;17.90;99.90;;;18.33;100.00;98065.06;5142299;28;20223;-65
2023/06/23 03:13:14;;;;;;;7.30;6.70;;;17.70;99.90;;;18.34;100.00;98069.44;5140473;28;20235;-65
2023/06/23 03:15:55;;;;;;;6.82;6.28;;;17.80;99.90;;;18.37;100.00;98069.50;5137119;28;20315;-65
2023/06/23 03:18:35;;;;;;;6.25;5.65;;;17.70;99.90;;;18.33;100.00;98075.41;5136036;28;20239;-65
2023/06/23 03:21:09;;;;;;;6.13;5.63;;;17.70;99.90;;;18.45;100.00;98070.59;5137970;28;20663;-65
2023/06/23 03:23:43;;;;;;;6.63;6.13;;;17.70;99.90;;;18.31;100.00;98071.91;5139277;28;20235;-65
2023/06/23 03:26:17;;;;;;;6.90;6.40;;;17.70;99.90;;;18.31;100.00;98081.38;5135264;28;20711;-65
2023/06/23 03:28:55;;;;;;;6.53;6.03;;;17.70;99.90;;;18.31;100.00;98082.25;5140501;28;20240;-65
2023/06/23 03:31:29;;;;;;;7.20;6.60;;;17.70;99.90;;;18.33;100.00;98084.91;5139332;28;20781;-65
2023/06/23 03:34:04;;;;;;;6.30;5.80;;;17.70;99.90;;;18.32;100.00;98093.50;5136521;28;20228;-65
2023/06/23 03:36:41;;;;;;;6.38;5.78;;;17.60;99.90;;;18.37;100.00;98095.41;5138397;28;20675;-65
2023/06/23 03:39:24;;;;;;;7.85;7.15;;;17.70;99.90;;;18.33;100.00;98100.41;5136936;28;20235;-65
2023/06/23 03:41:57;;;;;;;7.05;6.45;;;17.70;99.90;;;18.31;100.00;98097.78;5138478;28;20244;-65
2023/06/23 03:44:36;;;;;;;7.60;6.90;;;17.60;99.90;;;18.30;100.00;98100.34;5138326;28;20324;-65
2023/06/23 03:47:16;;;;;;;9.27;8.38;;;17.70;99.90;;;18.37;100.00;98107.44;5139073;28;20223;-65
2023/06/23 03:49:55;;;;;;;8.18;7.47;;;17.70;99.90;;;18.34;100.00;98104.75;5138072;28;20234;-65
2023/06/23 03:52:30;;;;;;;8.60;7.90;;;17.70;99.90;;;18.33;100.00;98113.38;5132723;28;20294;-65
2023/06/23 03:55:07;;;;;;;8.85;8.07;;;17.60;99.90;;;18.27;100.00;98105.41;5139645;28;20282;-65
2023/06/23 03:57:42;;;;;;;9.40;8.57;;;17.60;99.90;;;18.28;100.00;98114.94;5135368;28;20223;-65
2023/06/23 04:00:17;;;;;;;9.82;9.02;;;17.60;99.90;;;18.27;100.00;98119.22;5137228;28;20279;-65
2023/06/23 04:02:52;;;;;;;9.70;8.90;;;17.60;99.90;;;18.33;100.00;98127.19;5133565;28;21943;-65
2023/06/23 04:05:30;;;;;;;9.05;8.23;;;17.70;99.90;;;18.36;100.00;98122.09;5136527;28;20724;-65
2023/06/23 04:08:06;;;;;;;10.50;9.50;;;17.70;99.90;;;18.35;100.00;98111.72;5135302;28;20608;-65
2023/06/23 04:10:39;;;;;;;9.52;8.82;;;17.60;99.90;;;18.39;100.00;98134.25;5139461;28;20270;-65
2023/06/23 04:13:15;;;;;;;10.55;9.65;;;17.70;99.90;;;18.47;100.00;98140.53;5117674;28;20220;-65
2023/06/23 04:15:50;;;;;;;10.35;9.45;;;17.70;99.90;;;18.45;100.00;98132.72;5117223;28;20267;-65
2023/06/23 04:18:25;;;;;;;12.38;11.32;;;17.80;99.90;;;18.43;100.00;98130.94;5113542;28;20240;-65
2023/06/23 04:21:01;;;;;;;13.00;11.80;;;17.80;99.90;;;18.45;100.00;98140.47;5117893;28;20235;-65
2023/06/23 04:23:37;;;;;;;12.77;11.57;;;17.80;99.90;;;18.45;100.00;98143.06;5114183;28;20227;-65
2023/06/23 04:26:12;;;;;;;14.27;12.98;;;17.80;99.90;;;18.57;100.00;98146.88;5113394;28;20373;-65
2023/06/23 04:28:48;;;;;;;13.02;11.90;;;17.80;99.90;;;18.63;100.00;98141.91;5117350;28;20239;-64
2023/06/23 04:31:22;;;;;;;14.73;13.30;;;17.80;99.90;;;18.59;100.00;98146.09;5114328;28;20228;-65
2023/06/23 04:33:56;;;;;;;13.45;12.32;;;17.90;99.90;;;18.56;100.00;98146.00;5111587;28;20224;-64
2023/06/23 04:36:40;;;;;;;14.30;13.00;;;17.80;99.90;;;18.62;100.00;98150.47;5112038;28;20676;-64
2023/06/23 04:39:17;;;;;;;15.07;13.68;;;17.80;99.90;;;18.65;100.00;98155.75;5115924;28;20288;-65
2023/06/23 04:41:56;;;;;;;15.32;13.93;;;17.90;99.90;;;18.76;100.00;98158.69;5107263;28;20584;-64
2023/06/23 04:44:33;;;;;;;15.20;13.85;;;18.00;99.90;;;18.75;100.00;98164.72;5114294;28;20259;-65
2023/06/23 04:47:08;;;;;;;15.60;14.20;;;18.00;99.90;;;18.66;100.00;98170.47;5118287;28;20286;-64
2023/06/23 04:49:45;;;;;;;15.60;14.30;;;17.90;99.90;;;18.59;100.00;98176.28;5113880;28;20235;-65
2023/06/23 04:52:21;;;;;;;15.52;14.02;;;17.90;99.90;;;18.60;100.00;98173.75;5113185;28;20291;-65
2023/06/23 04:54:59;;;;;;;14.65;13.25;;;17.90;99.90;;;18.71;100.00;98176.63;5112948;28;20537;-64
2023/06/23 04:57:35;;;;;;;15.65;14.25;;;18.00;99.90;;;18.75;100.00;98186.31;5114893;28;20825;-65
2023/06/23 05:00:11;;;;;;;16.02;14.52;;;18.00;99.90;;;18.75;100.00;98177.66;5114578;28;20310;-64
2023/06/23 05:02:47;;;;;;;16.13;14.70;;;18.00;99.90;;;18.75;100.00;98194.09;5120112;28;20279;-64
2023/06/23 05:09:36;;;;;;;15.77;14.27;;;18.00;99.90;;;18.80;100.00;98184.75;5096188;28;21556;-65
2023/06/23 05:12:12;;;;;;;16.38;14.85;;;18.10;99.90;;;18.89;100.00;98192.78;5203811;23;20386;-64
2023/06/23 05:14:47;;;;;;;16.17;14.77;;;18.10;99.90;;;18.99;100.00;98193.03;5216970;28;20761;-64
2023/06/23 05:17:23;;;;;;;16.15;14.68;;;18.20;99.90;;;18.95;100.00;98202.44;5223463;28;20625;-64
2023/06/23 05:19:58;;;;;;;16.52;15.15;;;18.20;99.90;;;19.02;100.00;98200.91;5222549;28;20765;-64
2023/06/23 05:22:33;;;;;;;17.33;15.65;;;18.30;99.90;;;19.03;100.00;98200.97;5216141;28;20259;-64
2023/06/23 05:25:11;;;;;;;17.20;15.60;;;18.30;99.90;;;19.07;100.00;98207.09;5222982;28;20695;-65
2023/06/23 05:27:46;;;;;;;15.93;14.43;;;18.30;99.90;;;19.14;100.00;98209.03;5219470;28;20233;-64
2023/06/23 05:30:20;;;;;;;15.75;14.43;;;18.40;99.90;;;19.17;100.00;98213.41;5219160;28;20635;-65
2023/06/23 05:32:56;;;;;;;17.17;15.48;;;18.40;99.90;;;19.24;100.00;98212.78;5222555;28;20227;-64
2023/06/23 05:35:32;;;;;;;17.05;15.45;;;18.40;99.90;;;19.28;100.00;98201.66;5208567;28;20576;-65
2023/06/23 05:38:07;;;;;;;17.83;16.33;;;18.50;99.90;;;19.28;100.00;98207.69;5223484;28;20714;-65
2023/06/23 05:40:41;;;;;;;16.40;15.00;;;18.60;99.90;;;19.55;100.00;98204.16;5217525;28;20248;-65
2023/06/23 05:43:14;;;;;;;16.90;15.40;;;18.70;99.90;;;19.69;100.00;98205.44;5206262;28;20247;-64
2023/06/23 05:45:48;;;;;;;17.13;15.45;;;18.80;99.90;;;19.65;99.67;98197.47;5217310;28;20225;-65
2023/06/23 05:48:28;;;;;;;18.60;16.80;;;18.80;99.90;;;19.77;97.27;98197.81;5216049;28;20233;-65
2023/06/23 05:51:07;;;;;;;17.92;16.42;;;18.90;99.90;;;19.85;96.90;98201.50;5217331;28;20240;-65
2023/06/23 05:53:42;;;;;;;19.38;17.40;;;18.90;99.90;;;19.78;95.36;98210.84;5223573;28;20236;-64
2023/06/23 05:56:22;;;;;;;19.35;17.60;;;18.90;99.90;;;19.89;96.51;98205.06;5215047;28;20659;-65
2023/06/23 05:58:59;;;;;;;19.25;17.45;;;19.00;99.90;;;19.80;95.17;98213.47;5221098;28;20221;-65
2023/06/23 06:01:40;;;;;;;19.05;17.35;;;18.90;99.90;;;19.82;94.23;98208.34;5217048;28;20262;-65
2023/06/23 06:04:17;;;;;;;19.63;17.73;;;18.90;99.90;;;19.89;93.32;98212.84;5219903;28;20228;-65
2023/06/23 06:06:51;;;;;;;20.52;18.63;;;18.90;99.90;;;19.78;92.35;98218.63;5224730;28;20229;-65
2023/06/23 06:09:28;;;;;;;20.90;19.10;;;18.80;99.90;;;19.57;92.67;98220.59;5219669;28;20718;-65
2023/06/23 06:12:05;;;;;;;20.10;18.05;;;18.70;99.90;;;19.59;92.21;98224.13;5225180;28;20224;-65
2023/06/23 06:14:39;;;;;;;20.52;18.65;;;18.70;99.90;;;19.48;92.87;98235.91;5214159;28;20217;-65
2023/06/23 06:17:14;;;;;;;21.60;19.45;;;18.60;99.90;;;19.40;93.52;98247.78;5215614;28;20239;-65
2023/06/23 06:19:49;;;;;;;20.83;18.92;;;18.50;99.90;;;19.35;95.72;98250.25;5223182;28;20227;-65
2023/06/23 06:22:25;;;;;;;19.08;17.40;;;18.50;99.90;;;19.38;94.56;98250.34;5220165;28;20264;-65
2023/06/23 06:25:00;;;;;;;20.50;18.60;;;18.50;99.90;;;19.45;93.78;98251.38;5226514;28;20232;-65
2023/06/23 06:27:36;;;;;;;22.00;19.85;;;18.50;99.90;;;19.40;93.97;98271.09;5219546;28;20270;-65
2023/06/23 06:30:10;;;;;;;20.08;18.17;;;18.50;99.90;;;19.57;91.27;98273.38;5212856;28;20301;-65
2023/06/23 06:32:44;;;;;;;21.80;19.70;;;18.60;99.90;;;19.44;92.32;98272.97;5217835;28;20228;-65
2023/06/23 06:35:18;;;;;;;23.20;21.00;;;18.60;99.90;;;19.50;93.38;98280.91;5224695;28;20308;-65
2023/06/23 06:37:52;;;;;;;21.90;20.00;;;18.60;99.90;;;19.63;92.12;98283.03;5225475;28;20232;-65
2023/06/23 06:40:27;;;;;;;21.58;19.67;;;18.70;99.90;;;19.75;91.03;98286.00;5222661;28;20632;-65
2023/06/23 06:43:02;;;;;;;20.50;18.70;;;18.80;99.90;;;19.78;91.91;98293.00;5222607;28;20247;-65
2023/06/23 06:45:35;;;;;;;19.90;18.10;;;18.80;99.90;;;19.84;91.44;98292.28;5228746;28;20227;-64
2023/06/23 06:48:10;;;;;;;22.17;20.17;;;18.90;99.90;;;19.87;90.26;98303.63;5214739;28;20221;-65
2023/06/23 06:50:44;;;;;;;21.23;19.30;;;18.80;99.90;;;19.82;89.84;98305.19;5218211;28;20619;-65
2023/06/23 06:53:19;;;;;;;24.80;22.45;;;18.80;99.90;;;19.84;87.08;98311.31;5218215;28;20252;-65
2023/06/23 06:55:53;;;;;;;23.30;21.08;;;18.90;99.90;;;19.72;89.08;98314.44;5219191;28;20229;-65
2023/06/23 06:58:28;;;;;;;22.95;20.75;;;18.80;99.90;;;19.83;88.44;98319.03;5217629;28;20299;-65
2023/06/23 07:01:03;;;;;;;23.38;21.13;;;18.90;99.90;;;19.91;87.03;98320.13;5220088;28;20224;-65
2023/06/23 07:03:39;;;;;;;24.08;21.77;;;18.90;99.90;;;20.01;85.89;98322.16;5217996;28;20304;-65
2023/06/23 07:06:13;;;;;;;23.83;21.58;;;18.90;99.90;;;20.18;85.96;98326.09;5211065;28;20604;-66
2023/06/23 07:08:47;;;;;;;23.50;21.30;;;19.30;99.90;;;20.68;81.93;98312.66;5213664;28;20225;-67
2023/06/23 07:11:21;;;;;;;23.00;20.75;;;19.80;99.90;;;20.92;81.42;98317.56;5225759;28;20221;-66
2023/06/23 07:13:55;;;;;;;23.33;20.92;;;19.90;99.90;;;21.03;80.27;98336.91;5220249;28;20695;-66
2023/06/23 07:16:33;;;;;;;21.77;19.60;;;20.00;99.90;;;20.99;81.53;98328.97;5216960;28;20989;-66
2023/06/23 07:19:06;;;;;;;21.45;19.25;;;19.90;99.90;;;21.06;80.55;98331.78;5217015;28;20609;-66
2023/06/23 07:21:39;;;;;;;22.65;20.52;;;20.00;99.90;;;21.18;79.81;98348.50;5228934;28;20228;-66
2023/06/23 07:24:13;;;;;;;23.08;20.85;;;20.10;99.90;;;21.23;78.30;98349.44;5218320;28;20216;-66
2023/06/23 07:26:47;;;;;;;21.67;19.70;;;20.20;99.90;;;21.32;76.17;98360.09;5220054;28;20222;-66
2023/06/23 07:29:21;;;;;;;21.58;19.63;;;20.20;99.90;;;21.33;76.32;98357.50;5228420;28;20711;-67
2023/06/23 07:31:54;;;;;;;22.75;20.38;;;20.10;99.90;;;21.27;76.03;98361.69;5222865;28;20236;-65
2023/06/23 07:34:28;;;;;;;23.33;20.92;;;20.10;99.90;;;21.01;76.76;98363.69;5220612;28;20240;-66
2023/06/23 07:37:01;;;;;;;21.90;19.92;;;19.80;99.90;;;20.90;77.28;98371.22;5213144;28;20716;-66
2023/06/23 07:39:34;;;;;;;20.52;18.58;;;19.80;99.90;;;20.86;79.54;98364.19;5219475;28;20227;-66
2023/06/23 07:42:09;;;;;;;22.02;19.98;;;19.70;99.90;;;20.86;78.81;98372.88;5219933;28;20271;-66
2023/06/23 07:44:44;;;;;;;21.80;19.70;;;19.80;99.90;;;20.89;78.13;98377.28;5219952;28;20278;-66
2023/06/23 07:47:17;;;;;;;20.13;18.23;;;19.80;99.90;;;20.98;77.40;98382.69;5208341;28;20617;-66
2023/06/23 07:49:51;;;;;;;20.50;18.42;;;19.80;99.90;;;21.04;76.87;98389.75;5220712;28;20216;-66
2023/06/23 07:52:24;;;;;;;20.73;18.63;;;19.90;99.90;;;21.19;74.42;98395.31;5220884;28;20236;-66
2023/06/23 07:54:57;;;;;;;19.65;17.75;;;20.20;99.90;;;21.25;75.48;98391.97;5221605;28;20273;-65
2023/06/23 07:57:30;;;;;;;20.98;18.80;;;20.20;99.90;;;21.31;75.62;98387.78;5220572;28;20237;-66
2023/06/23 08:00:08;;;;;;;21.13;19.00;;;20.30;99.90;;;21.38;74.76;98394.06;5217067;28;20644;-66
2023/06/23 08:02:41;;;;;;;21.55;19.30;;;20.50;99.90;;;21.46;73.93;98400.31;5216812;28;21004;-66
2023/06/23 08:05:15;;;;;;;20.50;18.50;;;20.50;99.90;;;21.41;74.57;98393.25;5219018;28;20221;-66
2023/06/23 08:07:48;;;;;;;20.38;18.48;;;20.40;99.90;;;21.32;73.91;98397.38;5215353;28;20354;-66
2023/06/23 08:10:21;;;;;;;20.23;18.33;;;20.40;99.90;;;21.46;73.37;98395.13;5220303;28;20298;-66
2023/06/23 08:12:54;;;;;;;17.77;16.08;;;20.40;99.90;;;21.56;72.76;98398.78;5222175;28;20232;-67
2023/06/23 08:15:29;;;;;;;17.08;15.48;;;20.50;99.90;;;21.71;73.55;98395.66;5210858;28;20735;-66
2023/06/23 08:18:02;;;;;;;17.33;15.77;;;20.70;99.90;;;22.00;72.15;98399.72;5212394;28;20224;-65
2023/06/23 08:20:36;;;;;;;17.73;16.02;;;21.00;99.90;;;22.29;69.42;98401.19;5223008;28;20336;-66
2023/06/23 08:23:09;;;;;;;15.75;14.35;;;21.30;99.90;;;22.72;68.82;98413.31;5214781;28;20225;-66
2023/06/23 08:25:42;;;;;;;15.00;13.60;;;21.60;99.90;;;22.59;68.51;98416.53;5219000;28;20270;-66
2023/06/23 08:28:15;;;;;;;15.73;14.25;;;21.60;99.90;;;22.44;68.05;98418.00;5218020;28;20274;-66
2023/06/23 08:30:49;;;;;;;15.95;14.35;;;21.40;99.90;;;22.54;67.87;98428.59;5224515;28;20278;-66
2023/06/23 08:33:23;;;;;;;16.33;14.73;;;21.40;99.90;;;22.56;68.31;98419.97;5220264;28;20226;-67
2023/06/23 08:35:56;;;;;;;15.88;14.48;;;21.40;99.90;;;22.71;68.20;98427.19;5219044;28;20220;-66
2023/06/23 08:38:29;;;;;;;17.70;16.20;;;21.70;99.90;;;22.98;64.70;98425.94;5210750;28;20283;-66
2023/06/23 08:41:03;;;;;;;16.45;14.95;;;21.90;99.90;;;23.01;65.60;98428.63;5219028;28;20228;-66
2023/06/23 08:43:36;;;;;;;16.98;15.48;;;21.90;99.90;;;23.10;65.27;98423.53;5224333;28;20300;-65
2023/06/23 08:46:14;;;;;;;16.42;14.68;;;22.10;99.90;;;23.15;63.27;98424.50;5216169;28;20213;-66
2023/06/23 08:48:51;;;;;;;14.98;13.50;;;22.30;99.90;;;23.30;64.75;98434.31;5215791;28;20533;-66
2023/06/23 08:51:26;;;;;;;14.25;13.05;;;22.40;99.90;;;23.77;64.96;98421.97;5216376;28;20699;-66
2023/06/23 08:53:59;;;;;;;15.05;13.60;;;23.00;99.90;;;24.25;60.55;98418.22;5213951;28;20753;-66
2023/06/23 08:56:33;;;;;;;15.02;13.57;;;23.50;99.90;;;24.56;58.68;98416.00;5222870;28;20233;-66
2023/06/23 08:59:07;;;;;;;14.45;13.13;;;23.80;99.90;;;24.68;58.29;98421.34;5226041;28;20248;-66
2023/06/23 09:01:41;;;;;;;15.52;14.02;;;23.90;99.90;;;24.55;56.73;98427.28;5211483;28;20648;-66
2023/06/23 09:04:15;;;;;;;15.05;13.82;;;23.60;99.90;;;24.42;56.88;98428.88;5218748;28;20216;-66
2023/06/23 09:06:48;;;;;;;13.63;12.32;;;23.40;99.90;;;24.08;57.67;98422.38;5223190;28;20305;-66
2023/06/23 09:09:21;;;;;;;12.90;11.75;;;23.10;99.90;;;24.20;57.62;98430.34;5218540;28;20716;-66
2023/06/23 09:11:55;;;;;;;11.63;10.63;;;23.40;99.90;;;24.68;58.68;98436.16;5215915;28;20282;-66
2023/06/23 09:14:30;;;;;;;13.63;12.40;;;24.00;99.90;;;24.95;55.75;98432.91;5211777;28;20259;-66
2023/06/23 09:17:06;;;;;;;13.25;12.07;;;24.30;99.90;;;24.90;55.68;98424.16;5213510;28;20229;-66
2023/06/23 09:19:42;;;;;;;13.63;12.45;;;24.00;99.90;;;25.03;55.24;98425.13;5217965;28;20770;-66
2023/06/23 09:22:18;;;;;;;10.75;9.70;;;24.10;99.90;;;25.40;52.33;98419.34;5215529;28;20221;-66
2023/06/23 09:24:51;;;;;;;10.50;9.52;;;24.60;98.80;;;25.43;53.30;98422.88;5219587;28;20235;-66
2023/06/23 09:27:41;;;;;;;10.80;9.90;;;24.80;98.50;;;25.34;52.21;98432.41;5218763;28;20220;-66
2023/06/23 09:30:14;;;;;;;10.85;9.88;;;24.60;97.90;;;25.10;52.24;98434.81;5215747;28;20828;-66
2023/06/23 09:32:49;;;;;;;10.20;9.30;;;24.40;97.30;;;25.06;52.14;98441.72;5214050;28;20549;-66
2023/06/23 09:35:22;;;;;;;11.07;10.07;;;24.10;97.90;;;24.80;51.33;98448.47;5215292;28;20717;-66
2023/06/23 09:37:56;;;;;;;11.23;10.20;;;23.90;97.50;;;24.76;53.73;98441.47;5219251;28;20272;-66
2023/06/23 09:40:30;;;;;;;9.82;8.93;;;23.90;98.90;;;25.14;51.17;98432.25;5216777;28;20221;-66
2023/06/23 09:43:03;;;;;;;9.80;9.00;;;24.30;97.50;;;25.29;52.34;98435.84;5212557;28;20244;-66
2023/06/23 09:45:36;;;;;;;9.05;8.25;;;24.50;97.50;;;25.38;51.02;98446.38;5212342;28;20224;-66
2023/06/23 09:48:20;;;;;;;9.00;8.10;;;24.70;96.40;;;25.50;50.76;98440.38;5210808;28;20773;-66
2023/06/23 09:51:04;;;;;;;8.38;7.75;;;24.80;95.80;;;25.65;50.44;98439.59;5212516;28;20252;-66
2023/06/23 09:53:39;;;;;;;9.40;8.60;;;24.90;96.00;;;25.80;48.88;98451.03;5217774;28;20225;-66
2023/06/23 09:56:16;;;;;;;8.30;7.65;;;25.10;94.40;;;25.95;49.72;98429.31;5218467;28;20223;-66
2023/06/23 09:58:50;;;;;;;7.95;7.30;;;25.20;95.00;;;25.94;48.67;98442.41;5211308;28;20294;-66
2023/06/23 10:01:23;;;;;;;9.93;9.13;;;25.30;94.40;;;26.09;47.20;98437.22;5217810;28;21702;-66
2023/06/23 10:03:58;;;;;;;9.32;8.43;;;25.30;93.50;;;26.15;49.14;98423.28;5210303;28;20220;-66
2023/06/23 10:06:34;;;;;;;9.68;8.60;;;25.40;94.30;;;26.37;46.66;98422.50;5213834;28;20555;-66
2023/06/23 10:09:10;;;;;;;8.65;7.93;;;25.50;93.10;;;26.01;46.84;98425.84;5215123;28;20311;-66
2023/06/23 10:11:44;;;;;;;8.80;8.10;;;25.10;93.10;;;25.86;47.88;98439.75;5217961;28;20232;-67
2023/06/23 10:14:18;;;;;;;8.77;7.78;;;24.70;94.30;;;25.58;49.27;98449.13;5221220;28;20281;-66
2023/06/23 10:16:57;;;;;;;8.00;7.40;;;24.50;94.90;;;25.28;48.54;98434.09;5217724;28;20248;-66
2023/06/23 10:19:32;;;;;;;8.75;7.95;;;24.40;93.90;;;25.42;49.25;98437.69;5224067;28;20281;-67
2023/06/23 10:22:06;;;;;;;8.70;7.95;;;24.40;94.70;;;25.61;48.47;98428.22;5215779;28;20220;-67
2023/06/23 10:24:39;;;;;;;7.93;7.32;;;24.50;94.50;;;25.26;48.77;98439.31;5219869;28;20294;-67
2023/06/23 10:27:17;;;;;;;9.07;8.27;;;24.20;94.40;;;24.92;50.00;98445.97;5216067;28;20806;-66
2023/06/23 10:29:52;;;;;;;8.07;7.45;;;23.80;94.90;;;24.67;50.38;98456.19;5218090;28;20729;-66
2023/06/23 10:32:28;;;;;;;8.70;7.90;;;23.60;95.70;;;24.88;50.27;98462.50;5215010;28;20228;-66
2023/06/23 10:35:08;;;;;;;9.45;8.55;;;24.00;95.40;;;25.09;50.56;98451.34;5216681;28;20228;-66
2023/06/23 10:37:45;;;;;;;8.70;7.88;;;24.30;95.40;;;25.28;49.40;98436.72;5213970;28;20220;-66
2023/06/23 10:40:24;;;;;;;8.00;7.30;;;24.60;94.60;;;25.48;49.13;98427.25;5211392;28;20562;-66
2023/06/23 10:43:00;;;;;;;8.10;7.40;;;24.90;93.90;;;25.67;47.32;98419.50;5215601;28;20228;-66
2023/06/23 10:45:33;;;;;;;7.43;6.82;;;24.90;92.50;;;25.92;47.06;98439.78;5211324;28;20220;-65
2023/06/23 10:48:07;;;;;;;7.00;6.28;;;25.10;92.60;;;26.09;46.83;98428.50;5220878;28;20223;-66
2023/06/23 10:50:42;;;;;;;8.07;7.38;;;25.30;92.30;;;25.94;45.70;98443.28;5223381;28;20225;-66